• Join FlightAware (Why Join?)
  • Login
  • US Flag 
12:47PM EDT


 

Airport Tracker/Info


-or-


 

Live Flight TrackerFlight Track Log ✈ ASQ5685 ✈ 30-Apr-2014 ✈ KATL - KIAD

Flight Track Log - Related Links

Times and Time Zones

All times are in EDT time to prevent confusion due to time zone crossing. See the ASQ5685 flight status page for this flight to view local times or setup timezone preferences in your user account.

Time Position Orientation Groundspeed Altitude Reporting Facility
EDT Latitude Longitude Course Direction KTS MPH feet Rate Location/Type
10:09AM 33.6500 -84.4667 North 174 200 2,500  Level Atlanta TRACON
10:10AM 33.6833 -84.5500 296° West 277 319 3,700 2,220 Climbing Atlanta TRACON
10:11AM 33.7500 -84.5833 337° Northwest 306 352 7,000 2,280 Climbing Atlanta TRACON
10:13AM 33.9039 -84.5119 21° North 309 356 10,500 1,560 Climbing Atlanta Center
10:14AM 33.9961 -84.4572 26° Northeast 352 405 11,600 1,200 Climbing Atlanta Center
10:15AM 33.9477 -84.2667 North  Level FlightAware Approximate
10:15AM 34.0900 -84.4025 26° Northeast 365 420 13,000  Level Atlanta Center
10:16AM 34.1864 -84.3425 27° Northeast 370 426 14,500 1,380 Climbing Atlanta Center
10:17AM 34.2844 -84.2853 26° Northeast 387 445 15,800 1,440 Climbing Atlanta Center
10:18AM 34.3931 -84.2578 12° North 387 445 17,400 1,380 Climbing Atlanta Center
10:19AM 34.4994 -84.2303 12° North 387 445 18,600 1,140 Climbing Atlanta Center
10:20AM 34.6122 -84.2053 10° North 398 458 19,700 1,020 Climbing Atlanta Center
10:21AM 34.7083 -84.1828 11° North 398 458 20,700 960 Climbing Atlanta Center
10:22AM 34.8211 -84.1553 11° North 398 458 21,700 960 Climbing Atlanta Center
10:23AM 34.9358 -84.1300 10° North 408 470 22,700 960 Climbing Atlanta Center
10:24AM 35.0506 -84.1022 11° North 413 475 23,700 900 Climbing Atlanta Center
10:25AM 35.1675 -84.0744 11° North 413 475 24,500 780 Climbing Atlanta Center
10:26AM 35.2844 -84.0464 11° North 418 481 25,300 660 Climbing Atlanta Center
10:27AM 35.4033 -84.0183 11° North 423 487 25,900 540 Climbing Atlanta Center
10:28AM 35.5222 -83.9903 11° North 429 494 26,400 540 Climbing Atlanta Center
10:29AM 35.6306 -83.9186 28° Northeast 437 503 27,000 540 Climbing Atlanta Center
10:30AM 35.7411 -83.8367 31° Northeast 437 503 27,500 480 Climbing Atlanta Center
10:31AM 35.8494 -83.7544 32° Northeast 449 517 28,000 480 Climbing Atlanta Center
10:32AM 35.9575 -83.6719 32° Northeast 449 517 28,500 420 Climbing Atlanta Center
10:33AM 36.0658 -83.5892 32° Northeast 449 517 28,900 240 Climbing Atlanta Center
10:34AM 36.1761 -83.5022 32° Northeast 466 536 29,000  Climbing Indianapolis Center
10:35AM 36.2914 -83.4133 32° Northeast 479 551 29,000  Level Indianapolis Center
10:36AM 36.4264 -83.3069 32° Northeast 488 562 29,000  Level Indianapolis Center
10:37AM 36.5461 -83.2150 32° Northeast 499 574 29,000  Level Indianapolis Center
10:39AM 36.6658 -83.1225 32° Northeast 500 575 29,000  Level Indianapolis Center
10:40AM 36.7867 -83.0275 32° Northeast 509 586 29,000  Level Indianapolis Center
10:41AM 36.9122 -82.9281 32° Northeast 510 587 29,000  Level Indianapolis Center
10:42AM 37.0408 -82.8272 32° Northeast 519 597 29,000  Level Indianapolis Center
10:43AM 37.1625 -82.7306 32° Northeast 518 596 29,000  Level Indianapolis Center
10:44AM 37.2858 -82.6331 32° Northeast 518 596 29,000  Level Indianapolis Center
10:45AM 37.4286 -82.5189 32° Northeast 518 596 29,000  Level Indianapolis Center
10:46AM 37.5508 -82.4208 32° Northeast 518 596 29,000  Level Indianapolis Center
10:47AM 37.6736 -82.3214 33° Northeast 520 598 29,000  Level Indianapolis Center
10:48AM 37.7961 -82.2231 32° Northeast 520 598 29,000  Level Indianapolis Center
10:49AM 37.9203 -82.1217 33° Northeast 520 598 29,000  Level Indianapolis Center
10:50AM 38.0425 -82.0228 32° Northeast 520 598 29,000  Level Indianapolis Center
10:51AM 38.1578 -81.9125 37° Northeast 521 600 29,000  Level Indianapolis Center
10:52AM 38.1975 -81.7097 76° East 500 575 29,000  Level Indianapolis Center
10:53AM 38.2125 -81.5372 84° East 499 574 29,000  Level Indianapolis Center
10:54AM 38.2269 -81.3650 84° East 497 572 29,000  Level Indianapolis Center
10:55AM 38.2419 -81.1947 84° East 494 568 29,000  Level Indianapolis Center
10:56AM 38.2561 -81.0233 84° East 493 567 29,000  Level Indianapolis Center
10:57AM 38.2703 -80.8517 84° East 493 567 29,000  Level Indianapolis Center
10:58AM 38.2878 -80.6453 84° East 492 566 29,000  Level Indianapolis Center
10:59AM 38.2961 -80.5472 84° East 479 551 29,000  Level Washington Center
11:00AM 38.3219 -80.3742 79° East 484 557 29,000  Level Washington Center
11:01AM 38.3558 -80.2042 76° East 484 557 29,000  Level Washington Center
11:02AM 38.3961 -80.0186 74° East 484 557 29,000  Level Washington Center
11:03AM 38.4317 -79.8458 75° East 489 563 29,000 -300 Level Washington Center
11:04AM 38.4667 -79.6756 75° East 489 563 28,400 -1,200 Descending Washington Center
11:05AM 38.5014 -79.5075 75° East 494 568 26,600 -2,220 Descending Washington Center
11:06AM 38.5317 -79.3444 77° East 483 556 24,100 -1,440 Descending Washington Center
11:07AM 38.5592 -79.1947 77° East 454 522 23,800 -1,260 Descending Washington Center
11:08AM 38.5886 -79.0472 76° East 433 498 21,600 -2,280 Descending Washington Center
11:09AM 38.6114 -78.8994 79° East 428 493 19,200 -2,460 Descending Washington Center
11:10AM 38.6403 -78.7625 75° East 414 476 16,800 -2,460 Descending Washington Center
11:11AM 38.6708 -78.6311 73° East 401 461 14,400 -2,400 Descending Washington Center
11:12AM 38.7011 -78.4992 74° East 387 445 12,000 -1,740 Descending Washington Center
11:13AM 38.7331 -78.3808 71° East 365 420 11,000 -1,200 Descending Washington Center
11:14AM 38.7936 -78.2897 50° Northeast 330 380 9,700 -1,140 Descending Washington Center
11:15AM 38.8517 -78.2039 49° Northeast 330 380 8,800 -1,200 Descending Washington Center
11:16AM 38.8808 -78.1117 68° East 294 338 7,300 -960 Descending Washington Center
11:17AM 38.9542 -78.0847 16° North 255 293 7,000 -180 Descending Washington Center
11:18AM 39.0192 -78.0764 North 245 282 7,000 8,340 Level Washington Center
11:19AM 39.0806 -78.0303 30° Northeast 256 295 24,000 -180 Climbing Washington Center
11:20AM 39.0569 -77.9547 112° Southeast 172 198 6,700 -9,180 Descending Washington Center
11:21AM 39.0228 -77.8842 122° Southeast 178 205 6,000 -240 Descending Washington Center
11:23AM 38.9667 -77.7000 111° Southeast 241 277 6,000  Level Potomac TRACON
11:24AM 38.9500 -77.6333 108° East 228 262 6,000  Level Potomac TRACON
11:26AM 38.8500 -77.5667 159° South 204 235 6,000  Level Potomac TRACON
11:27AM 38.7833 -77.5833 191° South 196 226 6,000 -180 Level Potomac TRACON
11:28AM 38.7333 -77.5833 180° South 192 221 5,700 -540 Descending Potomac TRACON
11:29AM 38.6667 -77.5833 180° South 190 219 5,000 -360 Descending Potomac TRACON
11:30AM 38.6333 -77.5500 142° Southeast 226 260 5,000  Level Potomac TRACON
11:31AM 38.6500 -77.4667 76° East 247 284 5,000  Level Potomac TRACON
11:32AM 38.7167 -77.4667 360° North 217 250 5,000 -840 Level Potomac TRACON
11:34AM 38.8333 -77.4667 12° North 209 241 2,500 -1,200 Descending Potomac TRACON
11:35AM 38.8833 -77.4667 360° North 160 184 1,500 -900 Descending Potomac TRACON
11:36AM 38.9167 -77.4667 360° North 137 158 700 -840 Descending Potomac TRACON